CST,Max TemperatureF,Mean TemperatureF,Min TemperatureF,Max Dew PointF,MeanDew PointF,Min DewpointF,Max Humidity, Mean Humidity, Min Humidity, Max Sea Level PressureIn, Mean Sea Level PressureIn, Min Sea Level PressureIn, Max VisibilityMiles, Mean VisibilityMiles, Min VisibilityMiles, Max Wind SpeedMPH, Mean Wind SpeedMPH, Max Gust SpeedMPH,PrecipitationIn, CloudCover, Events, WindDirDegrees
2014-1-1,16,10,5,11,7,-1,85,79,73,30.43,30.23,30.12,10,6,0,21,11,28,0.00,5,Fog-Snow,10
2014-1-2,12,3,-6,1,-4,-11,83,71,55,30.55,30.50,30.43,10,10,10,10,7,,0.00,3,Snow,342
2014-1-3,36,17,-2,24,10,-9,76,67,57,30.47,30.06,29.70,10,10,10,22,12,29,0.00,1,,167
2014-1-4,36,26,16,25,15,7,76,69,59,30.19,29.97,29.70,10,8,2,23,12,33,0.00,7,Snow,347
2014-1-5,15,6,-5,8,-6,-18,74,58,48,30.62,30.42,30.18,10,10,6,25,17,37,0.00,5,Snow,344
2014-1-6,5,-2,-9,-8,-14,-19,72,59,50,30.62,30.55,30.42,10,10,10,15,9,23,0.00,1,,285
2014-1-7,33,16,-2,18,6,-9,72,65,52,30.38,30.21,30.10,10,10,10,14,6,,0.00,3,,171
2014-1-8,21,18,15,15,13,10,81,75,65,30.43,30.37,30.26,10,10,7,12,6,,0.00,7,Snow,58
2014-1-9,27,17,8,25,16,5,96,85,77,30.40,30.18,29.97,10,7,1,12,6,,0.00,7,,132
2014-1-10,36,32,27,35,32,26,100,96,92,29.98,29.69,29.53,9,3,0,10,6,,0.01,7,Fog,178
2014-1-11,45,36,28,33,29,24,100,80,60,29.88,29.77,29.64,10,8,1,18,11,26,0.00,2,,266
2014-1-12,52,44,36,33,30,27,73,63,46,29.78,29.61,29.49,10,10,10,15,11,23,0.00,1,,229
2014-1-13,45,40,35,37,29,26,86,70,52,29.90,29.80,29.69,10,10,10,15,9,23,0.01,1,Rain,268
2014-1-14,44,34,23,32,20,11,70,55,31,30.26,30.04,29.73,10,10,10,25,15,40,0.00,1,,315
2014-1-15,39,26,12,26,14,7,81,60,47,30.29,30.11,29.81,10,10,10,17,11,25,0.00,3,,243
2014-1-16,44,32,19,28,19,7,70,52,38,30.10,29.89,29.76,10,10,5,30,16,45,0.00,5,Snow,308
2014-1-17,32,24,15,16,2,-6,60,42,19,30.22,30.13,29.96,10,10,10,23,15,32,0.00,1,,296
2014-1-18,45,32,19,29,20,15,81,59,48,30.14,29.89,29.70,10,10,10,30,16,44,0.00,3,,291
2014-1-19,60,38,17,27,22,13,84,51,27,30.09,29.88,29.76,10,10,10,23,11,32,0.00,0,,250
2014-1-20,50,32,10,29,19,2,78,59,35,30.44,30.08,29.85,10,10,10,25,10,43,0.00,3,,314
2014-1-21,23,11,1,3,-4,-7,70,51,32,30.56,30.38,30.14,10,10,10,23,12,33,0.00,3,,273
2014-1-22,34,20,3,17,8,-10,72,54,34,30.63,30.25,30.07,10,10,10,23,11,34,0.00,4,,317
2014-1-23,16,7,-2,-4,-8,-10,72,56,36,30.91,30.78,30.62,10,10,10,14,11,23,0.00,0,,303
2014-1-24,50,30,10,31,11,-5,54,43,32,30.57,30.09,29.73,10,10,10,24,16,33,0.00,2,,234
2014-1-25,48,39,30,35,25,12,86,62,32,30.07,29.92,29.65,10,10,10,18,12,28,0.00,4,,314
2014-1-26,55,35,12,32,21,-6,70,47,28,30.32,29.79,29.60,10,10,10,31,20,50,0.00,2,,304
2014-1-27,14,7,0,-6,-9,-10,72,50,34,30.57,30.51,30.35,10,10,10,22,13,34,0.00,0,,335
2014-1-28,24,10,-5,2,-4,-10,83,58,32,30.56,30.45,30.32,10,10,10,16,3,,0.00,1,,268
2014-1-29,46,24,1,14,6,-3,80,48,24,30.31,30.06,29.74,10,10,10,22,9,38,0.00,0,,185
2014-1-30,41,32,21,24,16,8,67,50,31,30.07,29.77,29.57,10,10,10,23,16,32,0.00,2,Rain,269
2014-1-31,21,18,15,17,12,6,92,78,57,30.18,30.08,29.94,10,6,0,13,10,,0.00,8,Fog-Snow,46